createdAt,value
2023-04-11T00:01:14.187Z,1.83
2023-04-11T00:03:42.975Z,2.40
2023-04-11T00:06:12.912Z,1.30
2023-04-11T00:08:41.771Z,1.33
2023-04-11T00:11:10.092Z,1.73
2023-04-11T00:13:38.499Z,3.37
2023-04-11T00:16:08.741Z,2.57
2023-04-11T00:18:39.351Z,4.47
2023-04-11T00:21:08.745Z,2.63
2023-04-11T00:23:38.501Z,3.43
2023-04-11T00:26:07.114Z,2.13
2023-04-11T00:28:35.975Z,2.13
2023-04-11T00:31:04.394Z,3.17
2023-04-11T00:33:32.818Z,2.80
2023-04-11T00:36:01.252Z,4.20
2023-04-11T00:38:29.687Z,2.50
2023-04-11T00:40:59.506Z,3.27
2023-04-11T00:43:27.875Z,1.90
2023-04-11T00:45:56.335Z,3.10
2023-04-11T00:48:28.420Z,2.70
2023-04-11T00:50:56.896Z,2.13
2023-04-11T00:53:25.445Z,1.87
2023-04-11T00:55:53.920Z,1.33
2023-04-11T00:58:23.653Z,2.37
2023-04-11T01:00:52.041Z,2.73
2023-04-11T01:03:21.323Z,2.27
2023-04-11T01:05:52.301Z,2.03
2023-04-11T01:08:21.562Z,3.50
2023-04-11T01:10:50.794Z,1.23
2023-04-11T01:13:19.227Z,1.63
2023-04-11T01:15:49.051Z,2.40
2023-04-11T01:18:18.066Z,2.43
2023-04-11T01:20:46.466Z,2.30
2023-04-11T01:23:15.448Z,2.80
2023-04-11T01:25:45.214Z,1.27
2023-04-11T01:28:14.268Z,1.70
2023-04-11T01:30:42.695Z,2.30
2023-04-11T01:33:11.892Z,1.97
2023-04-11T01:35:40.262Z,2.00
2023-04-11T01:38:09.045Z,1.97
2023-04-11T01:40:37.672Z,1.93
2023-04-11T01:43:09.293Z,2.97
2023-04-11T01:45:38.247Z,2.17
2023-04-11T01:48:08.493Z,2.40
2023-04-11T01:50:37.020Z,3.07
2023-04-11T01:53:05.769Z,2.60
2023-04-11T01:55:34.156Z,1.90
2023-04-11T01:58:02.503Z,3.67
2023-04-11T02:00:32.571Z,3.37
2023-04-11T02:03:01.130Z,2.83
2023-04-11T02:05:29.646Z,2.27
2023-04-11T02:07:58.018Z,1.73
2023-04-11T02:10:26.364Z,2.27
2023-04-11T02:12:54.858Z,2.67
2023-04-11T02:15:23.573Z,2.07
2023-04-11T02:17:54.193Z,3.30
2023-04-11T02:20:23.305Z,2.30
2023-04-11T02:22:51.758Z,3.50
2023-04-11T02:25:20.241Z,3.60
2023-04-11T02:27:48.665Z,2.10
2023-04-11T02:30:17.084Z,2.33
2023-04-11T02:32:46.633Z,3.67
2023-04-11T02:35:16.586Z,2.73
2023-04-11T02:37:45.128Z,3.10
2023-04-11T02:40:13.701Z,3.07
2023-04-11T02:42:43.329Z,3.13
2023-04-11T02:45:12.810Z,2.67
2023-04-11T02:47:41.355Z,2.70
2023-04-11T02:50:10.564Z,3.17
2023-04-11T02:52:42.238Z,2.77
2023-04-11T02:55:14.078Z,1.90
2023-04-11T02:57:42.490Z,2.30
2023-04-11T03:00:11.359Z,3.57
2023-04-11T03:02:39.956Z,1.77
2023-04-11T03:05:09.268Z,1.50
2023-04-11T03:07:38.542Z,2.93
2023-04-11T03:10:09.270Z,2.47
2023-04-11T03:12:37.694Z,1.90
2023-04-11T03:15:06.304Z,3.73
2023-04-11T03:17:35.233Z,2.07
2023-04-11T03:20:07.184Z,2.13
2023-04-11T03:22:35.700Z,1.83
2023-04-11T03:25:04.112Z,2.67
2023-04-11T03:27:33.798Z,2.47
2023-04-11T03:30:02.171Z,3.20
2023-04-11T03:32:30.611Z,2.03
2023-04-11T03:34:59.186Z,2.17
2023-04-11T03:37:27.563Z,3.43
2023-04-11T03:39:55.964Z,3.03
2023-04-11T03:42:24.337Z,1.87
2023-04-11T03:44:54.095Z,1.60
2023-04-11T03:47:22.475Z,2.13
2023-04-11T03:49:50.829Z,2.97
2023-04-11T03:52:19.369Z,3.43
2023-04-11T03:54:47.951Z,3.97
2023-04-11T03:57:16.428Z,1.50
2023-04-11T03:59:44.806Z,2.20
2023-04-11T04:02:15.090Z,3.60
2023-04-11T04:04:44.393Z,2.27
2023-04-11T04:07:12.853Z,3.70
2023-04-11T04:09:42.156Z,2.07
2023-04-11T04:12:10.606Z,1.87
2023-04-11T04:14:38.916Z,1.90
2023-04-11T04:17:08.293Z,2.27
2023-04-11T04:19:38.007Z,2.57
2023-04-11T04:22:11.638Z,2.63
2023-04-11T04:24:42.043Z,1.50
2023-04-11T04:27:10.696Z,3.00
2023-04-11T04:29:39.496Z,1.60
2023-04-11T04:32:11.351Z,3.60
2023-04-11T04:34:46.901Z,2.13
2023-04-11T04:37:21.866Z,2.30
2023-04-11T04:39:54.414Z,2.87
2023-04-11T04:42:24.168Z,3.03
2023-04-11T04:44:52.542Z,2.53
2023-04-11T04:47:21.031Z,4.30
2023-04-11T04:49:50.727Z,2.63
2023-04-11T04:52:19.044Z,2.60
2023-04-11T04:54:48.236Z,2.90
2023-04-11T04:57:16.627Z,2.63
2023-04-11T04:59:46.434Z,2.43
2023-04-11T05:02:14.898Z,3.50
2023-04-11T05:04:44.853Z,3.40
2023-04-11T05:07:15.163Z,2.50
2023-04-11T05:09:44.044Z,2.47
2023-04-11T05:12:13.705Z,3.13
2023-04-11T05:14:44.234Z,1.57
2023-04-11T05:17:12.896Z,2.00
2023-04-11T05:19:41.252Z,1.80
2023-04-11T05:22:09.694Z,3.60
2023-04-11T05:24:39.464Z,2.53
2023-04-11T05:27:07.825Z,3.40
2023-04-11T05:29:36.266Z,1.97
2023-04-11T05:32:04.776Z,2.73
2023-04-11T05:34:34.360Z,2.30
2023-04-11T05:37:02.849Z,1.43
2023-04-11T05:39:31.369Z,2.20
2023-04-11T05:42:07.825Z,2.30
2023-04-11T05:44:36.501Z,1.50
2023-04-11T05:47:04.846Z,2.07
2023-04-11T05:49:33.202Z,1.73
2023-04-11T05:52:01.569Z,3.27
2023-04-11T05:54:33.868Z,2.60
2023-04-11T05:57:03.854Z,1.77
2023-04-11T05:59:32.983Z,3.00
2023-04-11T06:02:01.749Z,2.70
2023-04-11T06:04:30.327Z,2.90
2023-04-11T06:06:58.910Z,1.93
2023-04-11T06:09:27.518Z,2.77
2023-04-11T06:11:57.547Z,2.57
2023-04-11T06:14:27.544Z,2.63
2023-04-11T06:16:56.145Z,3.00
2023-04-11T06:19:24.524Z,2.00
2023-04-11T06:21:52.898Z,2.23
2023-04-11T06:24:35.779Z,3.17
2023-04-11T06:27:04.666Z,1.33
2023-04-11T06:29:34.490Z,4.00
2023-04-11T06:32:02.816Z,3.70
2023-04-11T06:34:31.235Z,3.27
2023-04-11T06:36:59.560Z,3.43
2023-04-11T06:39:27.948Z,2.57
2023-04-11T06:41:56.530Z,3.07
2023-04-11T06:44:24.981Z,4.53
2023-04-11T06:46:54.818Z,3.30
2023-04-11T06:49:23.371Z,3.07
2023-04-11T06:51:51.757Z,2.50
2023-04-11T06:54:20.410Z,1.80
2023-04-11T06:56:50.671Z,2.70
2023-04-11T06:59:20.560Z,1.93
2023-04-11T07:01:49.444Z,2.47
2023-04-11T07:04:19.369Z,1.73
2023-04-11T07:06:48.099Z,2.53
2023-04-11T07:09:16.547Z,2.77
2023-04-11T07:11:45.125Z,2.97
2023-04-11T07:14:13.540Z,2.10
2023-04-11T07:16:42.006Z,2.60
2023-04-11T07:19:10.569Z,2.67
2023-04-11T07:21:40.434Z,2.63
2023-04-11T07:24:10.462Z,1.63
2023-04-11T07:26:42.217Z,3.23
2023-04-11T07:29:13.133Z,2.03
2023-04-11T07:31:44.964Z,2.73
2023-04-11T07:34:13.494Z,2.90
2023-04-11T07:36:43.274Z,2.37
2023-04-11T07:39:14.145Z,3.20
2023-04-11T07:41:42.578Z,2.87
2023-04-11T07:44:11.155Z,3.93
2023-04-11T07:46:39.484Z,2.77
2023-04-11T07:49:08.174Z,3.87
2023-04-11T07:51:36.516Z,2.77
2023-04-11T07:54:06.304Z,3.70
2023-04-11T07:56:34.653Z,3.73
2023-04-11T07:59:03.410Z,3.17
2023-04-11T08:01:32.115Z,2.93
2023-04-11T08:04:01.003Z,3.23
2023-04-11T08:06:31.499Z,2.13
2023-04-11T08:09:01.145Z,1.97
2023-04-11T08:11:31.026Z,3.40
2023-04-11T08:13:59.459Z,1.77
2023-04-11T08:16:27.844Z,2.13
2023-04-11T08:18:57.236Z,3.03
2023-04-11T08:21:26.120Z,5.07
2023-04-11T08:23:54.722Z,2.57
2023-04-11T08:26:23.349Z,2.23
2023-04-11T08:28:53.228Z,3.23
2023-04-11T08:31:21.659Z,2.40
2023-04-11T08:33:50.127Z,2.03
2023-04-11T08:36:18.494Z,1.83
2023-04-11T08:38:46.875Z,2.07
2023-04-11T08:41:15.564Z,2.17
2023-04-11T08:43:45.892Z,2.17
2023-04-11T08:46:16.819Z,1.77
2023-04-11T08:48:45.295Z,2.43
2023-04-11T08:51:14.783Z,3.43
2023-04-11T08:53:43.342Z,3.63
2023-04-11T08:56:16.645Z,3.00
2023-04-11T08:58:44.988Z,1.63
2023-04-11T09:01:32.339Z,2.57
2023-04-11T09:04:05.012Z,3.43
2023-04-11T09:06:33.836Z,3.73
2023-04-11T09:09:05.229Z,1.83
2023-04-11T09:11:52.481Z,2.97
2023-04-11T09:14:20.886Z,2.20
2023-04-11T09:16:55.826Z,2.53
2023-04-11T09:19:29.752Z,2.33
2023-04-11T09:22:00.955Z,2.50
2023-04-11T09:24:29.655Z,2.03
2023-04-11T09:27:08.922Z,3.60
2023-04-11T09:29:39.000Z,1.93
2023-04-11T09:32:07.655Z,2.33
2023-04-11T09:34:39.491Z,2.13
2023-04-11T09:37:08.969Z,3.47
2023-04-11T09:39:37.452Z,2.73
2023-04-11T09:42:24.637Z,2.80
2023-04-11T09:44:53.016Z,1.87
2023-04-11T09:47:21.675Z,2.27
2023-04-11T09:49:52.881Z,2.07
2023-04-11T09:52:21.837Z,2.00
2023-04-11T09:54:51.380Z,1.97
2023-04-11T09:57:20.636Z,2.37
2023-04-11T09:59:49.017Z,2.20
2023-04-11T10:02:17.552Z,2.60
2023-04-11T10:04:47.748Z,2.43
2023-04-11T10:07:18.415Z,1.60
2023-04-11T10:09:47.715Z,2.03
2023-04-11T10:12:31.703Z,2.03
2023-04-11T10:15:00.374Z,3.13
2023-04-11T10:17:28.800Z,2.60
2023-04-11T10:19:57.450Z,1.73
2023-04-11T10:22:44.598Z,2.97
2023-04-11T10:25:21.336Z,2.80
2023-04-11T10:27:50.088Z,2.27
2023-04-11T10:30:18.504Z,3.07
2023-04-11T10:33:01.825Z,2.53
2023-04-11T10:35:30.979Z,3.17
2023-04-11T10:38:01.572Z,2.60
2023-04-11T10:40:32.275Z,1.80
2023-04-11T10:43:20.930Z,2.60
2023-04-11T10:46:09.345Z,2.33
2023-04-11T10:48:57.813Z,2.40
2023-04-11T10:51:27.847Z,2.30
2023-04-11T10:53:59.424Z,3.87
2023-04-11T10:56:46.782Z,2.50
2023-04-11T10:59:30.003Z,2.07
2023-04-11T11:01:59.862Z,2.50
2023-04-11T11:04:33.018Z,2.87
2023-04-11T11:07:04.199Z,1.93
2023-04-11T11:09:33.040Z,2.97
2023-04-11T11:12:07.714Z,2.87
2023-04-11T11:14:36.296Z,3.50
2023-04-11T11:17:06.466Z,2.17
2023-04-11T11:19:35.656Z,3.00
2023-04-11T11:22:04.921Z,2.07
2023-04-11T11:24:33.328Z,3.03
2023-04-11T11:27:01.790Z,3.30
2023-04-11T11:29:33.939Z,1.90
2023-04-11T11:32:03.978Z,2.50
2023-04-11T11:34:34.389Z,1.97
2023-04-11T11:37:04.746Z,3.73
2023-04-11T11:39:33.940Z,2.27
2023-04-11T11:42:03.417Z,1.87
2023-04-11T11:44:32.648Z,2.10
2023-04-11T11:47:04.256Z,2.50
2023-04-11T11:49:46.612Z,2.40
2023-04-11T11:52:15.650Z,2.27
2023-04-11T11:54:47.260Z,2.00
2023-04-11T11:57:23.746Z,2.30
2023-04-11T11:59:56.219Z,1.90
2023-04-11T12:02:26.332Z,2.03
2023-04-11T12:05:00.101Z,2.70
2023-04-11T12:07:33.569Z,1.67
2023-04-11T12:10:02.438Z,2.37
2023-04-11T12:12:36.158Z,1.80
2023-04-11T12:15:04.852Z,2.27
2023-04-11T12:17:37.823Z,2.17
2023-04-11T12:20:08.489Z,2.87
2023-04-11T12:22:37.039Z,2.17
2023-04-11T12:25:06.254Z,5.30
2023-04-11T12:27:35.241Z,2.30
2023-04-11T12:30:04.105Z,5.10
2023-04-11T12:32:33.893Z,2.33
2023-04-11T12:35:02.771Z,3.07
2023-04-11T12:37:32.540Z,2.47
2023-04-11T12:40:00.956Z,2.40
2023-04-11T12:42:29.440Z,2.47
2023-04-11T12:44:57.794Z,3.77
2023-04-11T12:47:26.247Z,2.47
2023-04-11T12:49:54.612Z,3.00
2023-04-11T12:52:23.221Z,3.50
2023-04-11T12:54:52.982Z,3.20
2023-04-11T12:57:21.415Z,2.30
2023-04-11T12:59:49.776Z,3.33
2023-04-11T13:02:19.072Z,2.53
2023-04-11T13:04:47.975Z,3.10
2023-04-11T13:07:16.693Z,1.87
2023-04-11T13:09:45.032Z,2.40
2023-04-11T13:12:14.802Z,1.67
2023-04-11T13:14:43.147Z,2.67
2023-04-11T13:17:11.622Z,2.07
2023-04-11T13:19:40.005Z,1.90
2023-04-11T13:22:08.346Z,2.07
2023-04-11T13:24:36.758Z,2.50
2023-04-11T13:27:05.254Z,1.13
2023-04-11T13:29:35.049Z,1.80
2023-04-11T13:32:03.684Z,2.93
2023-04-11T13:34:32.167Z,2.67
2023-04-11T13:37:01.382Z,1.50
2023-04-11T13:39:29.782Z,2.30
2023-04-11T13:41:58.289Z,3.07
2023-04-11T13:44:26.771Z,3.40
2023-04-11T13:46:56.615Z,1.83
2023-04-11T13:49:25.110Z,3.13
2023-04-11T13:51:53.582Z,2.10
2023-04-11T13:54:22.003Z,1.80
2023-04-11T13:56:50.455Z,1.40
2023-04-11T13:59:19.044Z,1.93
2023-04-11T14:01:47.501Z,1.47
2023-04-11T14:04:17.733Z,3.10
2023-04-11T14:06:46.258Z,2.40
2023-04-11T14:09:14.715Z,1.60
2023-04-11T14:11:43.084Z,2.17
2023-04-11T14:14:11.459Z,1.73
2023-04-11T14:16:39.914Z,1.20
2023-04-11T14:19:08.357Z,1.73
2023-04-11T14:21:38.138Z,1.60
2023-04-11T14:24:06.690Z,1.93
2023-04-11T14:26:35.094Z,2.03
2023-04-11T14:29:04.450Z,2.00
2023-04-11T14:31:33.184Z,1.43
2023-04-11T14:34:01.900Z,1.07
2023-04-11T14:36:30.298Z,1.63
2023-04-11T14:39:00.183Z,1.63
2023-04-11T14:41:28.583Z,1.93
2023-04-11T14:43:57.066Z,1.83
2023-04-11T14:46:25.655Z,2.20
2023-04-11T14:48:54.074Z,2.07
2023-04-11T14:51:23.373Z,1.50
2023-04-11T14:53:55.339Z,2.47
2023-04-11T14:56:26.024Z,1.97
2023-04-11T14:58:54.833Z,2.17
2023-04-11T15:01:23.286Z,1.63
2023-04-11T15:03:51.921Z,0.90
2023-04-11T15:06:20.383Z,1.93
2023-04-11T15:08:50.006Z,1.90
2023-04-11T15:11:18.913Z,1.83
2023-04-11T15:13:49.344Z,2.37
2023-04-11T15:16:18.755Z,0.97
2023-04-11T15:18:48.565Z,1.50
2023-04-11T15:21:17.409Z,2.83
2023-04-11T15:23:46.048Z,1.73
2023-04-11T15:26:14.643Z,1.27
2023-04-11T15:28:44.320Z,2.67
2023-04-11T15:31:15.507Z,1.67
2023-04-11T15:33:44.189Z,2.37
2023-04-11T15:36:12.831Z,1.40
2023-04-11T15:38:41.467Z,1.13
2023-04-11T15:41:09.870Z,1.50
2023-04-11T15:43:38.746Z,1.23
2023-04-11T15:46:07.775Z,1.87
2023-04-11T15:48:37.657Z,1.23
2023-04-11T15:51:10.369Z,1.83
2023-04-11T15:53:38.925Z,1.17
2023-04-11T15:56:08.240Z,1.60
2023-04-11T15:58:38.440Z,1.33
2023-04-11T16:01:07.327Z,1.27
2023-04-11T16:03:37.665Z,1.00
2023-04-11T16:06:06.605Z,2.50
2023-04-11T16:08:35.065Z,1.43
2023-04-11T16:11:03.752Z,2.23
2023-04-11T16:13:32.357Z,2.10
2023-04-11T16:16:00.902Z,1.90
2023-04-11T16:18:29.540Z,1.03
2023-04-11T16:20:59.338Z,1.30
2023-04-11T16:23:27.749Z,1.93
2023-04-11T16:25:56.128Z,1.23
2023-04-11T16:28:24.505Z,1.90
2023-04-11T16:30:52.878Z,1.60
2023-04-11T16:33:21.218Z,1.30
2023-04-11T16:35:49.726Z,1.87
2023-04-11T16:38:19.564Z,1.20
2023-04-11T16:40:48.021Z,1.73
2023-04-11T16:43:16.692Z,1.73
2023-04-11T16:45:45.062Z,1.43
2023-04-11T16:48:13.459Z,1.47
2023-04-11T16:50:41.882Z,1.67
2023-04-11T16:53:10.360Z,2.40
2023-04-11T16:55:40.128Z,1.60
2023-04-11T16:58:10.207Z,1.60
2023-04-11T17:00:38.665Z,2.03
2023-04-11T17:03:07.223Z,1.93
2023-04-11T17:05:35.801Z,1.30
2023-04-11T17:08:04.194Z,1.97
2023-04-11T17:10:33.091Z,1.17
2023-04-11T17:13:02.910Z,1.20
2023-04-11T17:15:32.472Z,2.77
2023-04-11T17:18:00.934Z,1.63
2023-04-11T17:20:29.439Z,1.73
2023-04-11T17:22:57.814Z,1.47
2023-04-11T17:25:26.156Z,1.97
2023-04-11T17:27:54.587Z,2.07
2023-04-11T17:30:24.431Z,2.37
2023-04-11T17:32:55.213Z,1.63
2023-04-11T17:35:23.750Z,2.50
2023-04-11T17:37:52.709Z,1.93
2023-04-11T17:40:21.195Z,1.83
2023-04-11T17:42:49.688Z,1.47
2023-04-11T17:45:18.896Z,1.33
2023-04-11T17:47:48.912Z,3.33
2023-04-11T17:50:18.056Z,2.27
2023-04-11T17:52:47.497Z,2.70
2023-04-11T17:55:16.858Z,2.27
2023-04-11T17:57:45.953Z,1.50
2023-04-11T18:00:19.432Z,2.07
2023-04-11T18:02:50.644Z,4.60
2023-04-11T18:05:23.836Z,2.80
2023-04-11T18:07:54.579Z,2.70
2023-04-11T18:10:23.263Z,1.30
2023-04-11T18:12:52.385Z,3.87
2023-04-11T18:15:20.784Z,3.47
2023-04-11T18:17:50.645Z,2.90
2023-04-11T18:20:19.492Z,3.80
2023-04-11T18:22:48.819Z,3.17
2023-04-11T18:25:17.307Z,2.23
2023-04-11T18:27:45.659Z,2.30
2023-04-11T18:30:15.104Z,3.60
2023-04-11T18:32:49.056Z,1.37
2023-04-11T18:35:20.154Z,3.50
2023-04-11T18:37:48.574Z,2.73
2023-04-11T18:40:18.269Z,2.30
2023-04-11T18:42:49.994Z,3.83
2023-04-11T18:45:20.857Z,1.63
2023-04-11T18:47:49.354Z,3.50
2023-04-11T18:50:18.592Z,3.00
2023-04-11T18:52:52.976Z,4.63
2023-04-11T18:55:24.458Z,3.90
2023-04-11T18:57:56.652Z,2.90
2023-04-11T19:00:26.495Z,3.17
2023-04-11T19:02:55.060Z,3.30
2023-04-11T19:05:25.505Z,2.73
2023-04-11T19:07:56.050Z,3.40
2023-04-11T19:10:24.479Z,3.00
2023-04-11T19:12:52.851Z,3.43
2023-04-11T19:15:21.351Z,3.60
2023-04-11T19:17:49.950Z,3.50
2023-04-11T19:20:19.211Z,2.77
2023-04-11T19:22:47.875Z,3.37
2023-04-11T19:25:17.717Z,4.00
2023-04-11T19:27:47.075Z,3.50
2023-04-11T19:30:15.596Z,2.97
2023-04-11T19:32:46.058Z,2.70
2023-04-11T19:35:14.967Z,3.30
2023-04-11T19:37:43.341Z,3.20
2023-04-11T19:40:12.360Z,1.10
2023-04-11T19:42:43.100Z,2.20
2023-04-11T19:45:12.191Z,3.20
2023-04-11T19:47:41.412Z,1.97
2023-04-11T19:50:12.023Z,2.97
2023-04-11T19:52:40.549Z,2.03
2023-04-11T19:55:10.194Z,1.27
2023-04-11T19:57:40.246Z,1.03
2023-04-11T20:00:12.722Z,2.43
2023-04-11T20:02:44.361Z,2.40
2023-04-11T20:05:13.658Z,2.77
2023-04-11T20:07:42.547Z,3.37
2023-04-11T20:10:11.427Z,2.97
2023-04-11T20:12:39.900Z,2.97
2023-04-11T20:15:10.890Z,3.77
2023-04-11T20:17:39.391Z,2.57
2023-04-11T20:20:08.870Z,3.60
2023-04-11T20:22:38.525Z,2.00
2023-04-11T20:25:08.215Z,3.00
2023-04-11T20:27:36.865Z,2.40
2023-04-11T20:30:06.932Z,3.23
2023-04-11T20:32:36.826Z,3.10
2023-04-11T20:35:05.393Z,2.83
2023-04-11T20:37:35.120Z,2.40
2023-04-11T20:40:06.568Z,3.17
2023-04-11T20:42:35.179Z,2.73
2023-04-11T20:45:08.189Z,3.37
2023-04-11T20:47:38.349Z,3.57
2023-04-11T20:50:07.398Z,2.50
2023-04-11T20:52:35.978Z,3.93
2023-04-11T20:55:04.469Z,3.43
2023-04-11T20:57:33.589Z,2.67
2023-04-11T21:00:02.030Z,3.13
2023-04-11T21:02:32.380Z,3.10
2023-04-11T21:05:02.306Z,3.40
2023-04-11T21:07:30.764Z,4.00
2023-04-11T21:09:59.171Z,2.53
2023-04-11T21:12:27.577Z,2.93
2023-04-11T21:14:55.974Z,4.07
2023-04-11T21:17:24.406Z,4.00
2023-04-11T21:19:52.780Z,2.93
2023-04-11T21:22:22.555Z,3.70
2023-04-11T21:24:50.893Z,4.33
2023-04-11T21:27:19.230Z,3.83
2023-04-11T21:29:47.555Z,3.30
2023-04-11T21:32:16.021Z,4.20
2023-04-11T21:34:44.463Z,3.73
2023-04-11T21:37:12.851Z,4.80
2023-04-11T21:39:42.559Z,4.20
2023-04-11T21:42:10.897Z,3.60
2023-04-11T21:44:39.316Z,4.50
2023-04-11T21:47:07.854Z,4.80
2023-04-11T21:49:36.301Z,4.00
2023-04-11T21:52:04.729Z,5.63
2023-04-11T21:54:34.221Z,5.80
2023-04-11T21:57:04.042Z,3.60
2023-04-11T21:59:32.508Z,4.43
2023-04-11T22:02:01.025Z,2.70
2023-04-11T22:04:29.839Z,5.10
2023-04-11T22:06:58.888Z,3.60
2023-04-11T22:09:27.278Z,3.80
2023-04-11T22:11:55.679Z,4.43
2023-04-11T22:14:27.670Z,4.70
2023-04-11T22:16:58.232Z,4.23
2023-04-11T22:19:28.612Z,4.67
2023-04-11T22:21:56.992Z,5.27
2023-04-11T22:24:30.296Z,5.57
2023-04-11T22:26:59.201Z,4.10
2023-04-11T22:29:30.553Z,4.13
2023-04-11T22:32:00.436Z,5.13
2023-04-11T22:34:29.060Z,4.70
2023-04-11T22:36:57.738Z,6.30
2023-04-11T22:39:26.523Z,5.00
2023-04-11T22:41:55.508Z,4.17
2023-04-11T22:44:24.014Z,4.93
2023-04-11T22:47:06.111Z,5.43
2023-04-11T22:49:40.242Z,5.30
2023-04-11T22:52:09.083Z,4.97
2023-04-11T22:54:38.572Z,4.13
2023-04-11T22:57:06.965Z,4.57
2023-04-11T22:59:35.269Z,5.23
2023-04-11T23:02:05.147Z,4.83
2023-04-11T23:04:33.841Z,5.37
2023-04-11T23:07:03.400Z,3.57
2023-04-11T23:09:32.301Z,5.90
2023-04-11T23:12:00.793Z,5.67
2023-04-11T23:14:31.413Z,4.60
2023-04-11T23:16:59.927Z,5.47
2023-04-11T23:19:30.077Z,3.10
2023-04-11T23:21:58.545Z,6.00
2023-04-11T23:24:28.939Z,6.50
2023-04-11T23:26:58.449Z,5.40
2023-04-11T23:29:27.602Z,7.00
2023-04-11T23:31:56.043Z,7.87
2023-04-11T23:34:24.530Z,8.40
2023-04-11T23:36:54.236Z,8.27
2023-04-11T23:39:22.921Z,10.33
2023-04-11T23:41:52.076Z,9.30
2023-04-11T23:44:20.606Z,9.73
2023-04-11T23:46:49.140Z,10.30
2023-04-11T23:49:17.588Z,11.97
2023-04-11T23:51:45.957Z,13.23
2023-04-11T23:54:15.699Z,12.13
2023-04-11T23:56:44.703Z,12.50
2023-04-11T23:59:13.122Z,10.17
